Terminal Aerodrome Forecast
Issued by NWS Knoxville/Tri Cities, TN

Home | Current Version | Previous Version | Text Only | Print | Product List | Glossary On
Versions: 1 2 3 4 5 6 7 8 9 10 11 12 13 14 15 16 17 18
000
FTUS44 KMRX 231722
TAFCHA
TAF
KCHA 231722Z 2318/2418 26010KT P6SM SCT024 OVC040
      TEMPO 2318/2320 5SM -SHRA BR SCT015 OVC022
     FM232200 25010KT P6SM SCT040
     FM240200 VRB02KT P6SM SCT080
     FM240800 20002KT P6SM OVC040
     FM241400 25010KT P6SM SCT050 BKN100=

USA.gov is the U.S. government's official web portal to all federal, state and local government web resources and services.